Terminal Aerodrome Forecast
Issued by NWS Grand Forks, ND

Home | Current Version | Previous Version | Text Only | Print | Product List | Glossary On
Versions: 1 2 3 4 5 6 7 8 9 10 11 12 13 14
000
FTUS43 KFGF 012338
TAFFAR
TAF
KFAR 012338Z 0200/0224 16018G25KT P6SM BKN060
     FM020800 16011KT P6SM BKN080
     FM021500 16014G22KT P6SM VCSH OVC040
     FM022100 17012G20KT P6SM VCTS BKN040CB=

USA.gov is the U.S. government's official web portal to all federal, state and local government web resources and services.